Saint Clement, Missouri
Current Conditions -  °F | °C
As of 8:55 PM on Friday 21 Nov 2014 (Local Time) from KPPQ Reporting Station
Overcast Overcast  
Wind Chill: 28°   Ceiling: 2300
Heat Index: 36°   Visibility: 10mi
Dew Point: 30°   Wind: 12mph
Humidity: 77%   Direction: 150°SSE
Pressure: 30.2"   Gusts: NA
Location:  39.321°N, 91.1912°W
Report Text: KPPQ 220255Z AUTO 15010KT 10SM BKN023 OVC037 02/M01 A3020 RMK AO2 T00231013 PWINO
Loading
Personal Weather Stations






























Interactive Weather Map New forecast layout! Learn more

10-Day Weather Forecast

Advertisements
Track Severe Weather on mobile